KIFP/IFP METAR and TAF weather

Enter ICAO airport designator
Station Type Date Time Source
KIFP METAR 2018/12/11 19:47 UTC NOAA

KIFP 111947Z 34018KT 20SM BKN120 18/00 A3005


Station Type Date Time Source
KIFP Decoded METAR 2018/12/11 19:47 UTC NOAA

Bullhead City, Laughlin/Bullhead International Airport, AZ, United States (KIFP) 35-09-27N 114-33-34W
Dec 11, 2018 - 02:47 PM EST / 2018.12.11 1947 UTC
Wind: from the NNW (340 degrees) at 21 MPH (18 KT):0
Visibility: 20 mile(s):0
Sky conditions: mostly cloudy
Temperature: 64 F (18 C)
Dew Point: 32 F (0 C)
Relative Humidity: 29%
Pressure (altimeter): 30.05 in. Hg (1017 hPa)
ob: KIFP 111947Z 34018KT 20SM BKN120 18/00 A3005
cycle: 20

Station Type Date Time Source
KIFP TAF 2018/12/11 18:51 UTC NOAA

KIFP 111750Z 1118/1218 36019G28KT P6SM FEW150 SCT200
FM120000 01011KT P6SM FEW150 FEW200


Example: see airport list